Time;durP1;ratioP1;P1;durP2;ratioP2;P2;SDS_P1;SDS_P2;PMS_P1;PMS_P2;Temp;Humidity;BMP_temperature;BMP_pressure;BME280_temperature;BME280_humidity;BME280_pressure;Samples;Min_cycle;Max_cycle;Signal;HPM_P1;HPM_P2
2020/12/04 03:47:20;;;;;;;15.57;9.05;;;2.90;99.90;;;;;;5441487;23;89821;-82
2020/12/04 03:49:45;;;;;;;15.65;8.55;;;2.90;99.90;;;;;;4988462;28;86919;-83
2020/12/04 03:52:11;;;;;;;14.48;9.07;;;2.90;99.90;;;;;;4989325;28;87814;-82
2020/12/04 03:54:37;;;;;;;16.88;8.75;;;2.90;99.90;;;;;;5008391;28;86656;-83
2020/12/04 03:57:03;;;;;;;13.85;7.88;;;2.90;99.90;;;;;;4995771;28;87423;-83
2020/12/04 03:59:30;;;;;;;13.93;9.40;;;3.00;99.90;;;;;;4988716;28;86180;-83
2020/12/04 04:01:56;;;;;;;13.38;7.45;;;2.90;99.90;;;;;;4987330;28;87015;-83
2020/12/04 04:04:22;;;;;;;16.55;10.05;;;2.80;99.90;;;;;;4987907;28;86915;-83
2020/12/04 04:06:48;;;;;;;17.05;10.55;;;3.30;99.90;;;;;;4986353;28;86936;-83
2020/12/04 04:09:13;;;;;;;15.05;8.43;;;3.00;99.90;;;;;;4988753;28;87111;-83
2020/12/04 04:11:39;;;;;;;13.70;7.90;;;3.00;99.90;;;;;;4980251;28;86940;-83
2020/12/04 04:14:05;;;;;;;18.27;10.20;;;;;;;;;;4969171;28;87024;-86
2020/12/04 04:16:31;;;;;;;16.70;9.45;;;3.00;99.90;;;;;;4971836;28;88246;-84
2020/12/04 04:18:56;;;;;;;15.52;8.90;;;3.00;99.90;;;;;;4987993;28;87332;-83
2020/12/04 04:21:22;;;;;;;12.45;7.28;;;3.50;99.90;;;;;;4986628;28;86817;-84
2020/12/04 04:23:50;;;;;;;4.93;2.92;;;3.10;99.60;;;;;;4969052;28;86808;-83
2020/12/04 04:26:16;;;;;;;10.20;5.65;;;3.50;89.90;;;;;;4969055;28;89347;-83
2020/12/04 04:28:42;;;;;;;2.42;1.70;;;3.90;93.70;;;;;;4969827;28;86933;-85
2020/12/04 04:31:08;;;;;;;1.52;1.42;;;4.60;73.20;;;;;;4960699;28;86862;-84
2020/12/04 04:33:34;;;;;;;2.83;1.63;;;5.20;70.80;;;;;;4995075;28;86131;-86
2020/12/04 04:36:00;;;;;;;2.78;1.83;;;5.80;65.50;;;;;;4988396;28;87259;-84
2020/12/04 04:38:26;;;;;;;10.57;6.70;;;6.10;69.20;;;;;;4988219;28;86980;-84
2020/12/04 04:40:58;;;;;;;21.00;11.38;;;6.00;85.30;;;;;;4985183;28;87847;-84
2020/12/04 04:43:25;;;;;;;20.27;11.98;;;5.10;88.50;;;;;;4983429;28;86992;-86
2020/12/04 04:45:51;;;;;;;18.10;11.23;;;5.10;89.00;;;;;;4971045;28;87999;-84
2020/12/04 04:48:25;;;;;;;21.10;12.27;;;4.70;91.60;;;;;;4976463;28;88676;-85
2020/12/04 04:50:59;;;;;;;19.88;12.77;;;4.00;94.80;;;;;;4984673;28;86057;-82
2020/12/04 04:53:28;;;;;;;21.10;11.75;;;4.20;94.90;;;;;;4978436;28;86061;-83
2020/12/04 04:55:55;;;;;;;21.85;12.43;;;4.20;96.10;;;;;;4972826;28;87765;-83
2020/12/04 04:58:45;;;;;;;20.65;11.60;;;4.00;96.60;;;;;;5003950;28;87026;-84
2020/12/04 05:01:11;;;;;;;24.58;12.07;;;3.80;97.30;;;;;;4985984;28;86088;-83
2020/12/04 05:03:36;;;;;;;19.63;11.10;;;3.60;98.80;;;;;;4988926;28;86944;-84
2020/12/04 05:06:02;;;;;;;20.75;12.63;;;3.90;99.90;;;;;;4983578;28;89231;-86
2020/12/04 05:08:28;;;;;;;23.30;12.88;;;3.40;99.90;;;;;;4987740;28;87813;-84
2020/12/04 05:11:07;;;;;;;21.40;12.38;;;3.40;99.90;;;;;;4988007;28;86776;-85
2020/12/04 05:13:33;;;;;;;22.95;13.35;;;3.50;99.90;;;;;;4988663;28;86829;-85
2020/12/04 05:15:58;;;;;;;21.40;12.55;;;3.30;99.90;;;;;;4987191;28;86862;-83
2020/12/04 05:18:24;;;;;;;23.42;12.82;;;3.30;99.90;;;;;;4987316;28;86999;-85
2020/12/04 05:20:52;;;;;;;22.40;14.32;;;3.20;99.90;;;;;;4985675;28;86980;-85
2020/12/04 05:23:19;;;;;;;25.63;13.43;;;3.20;99.90;;;;;;4987915;28;86139;-85
2020/12/04 05:25:46;;;;;;;21.20;12.95;;;3.20;99.90;;;;;;4987377;28;87253;-84
2020/12/04 05:28:16;;;;;;;22.00;13.75;;;3.20;99.90;;;;;;4987824;28;86857;-85
2020/12/04 05:30:48;;;;;;;21.45;12.80;;;3.10;99.90;;;;;;4982144;28;87417;-85
2020/12/04 05:33:13;;;;;;;;;;;3.10;99.90;;;;;;4988062;28;86656;-85
2020/12/04 05:35:40;;;;;;;19.17;12.25;;;3.10;99.90;;;;;;4988807;28;88005;-84
2020/12/04 05:38:12;;;;;;;22.17;14.07;;;3.20;99.90;;;;;;4984349;28;86940;-85
2020/12/04 05:40:40;;;;;;;22.30;12.57;;;3.20;99.90;;;;;;4988280;28;86251;-84
2020/12/04 05:43:06;;;;;;;22.73;13.20;;;3.20;99.90;;;;;;4986889;28;86940;-85
2020/12/04 05:45:32;;;;;;;23.33;12.85;;;3.20;99.90;;;;;;4972275;28;90074;-85
2020/12/04 05:47:59;;;;;;;20.52;13.07;;;2.90;99.90;;;;;;4971882;28;88931;-85
2020/12/04 05:50:25;;;;;;;22.27;12.35;;;3.20;99.90;;;;;;4990847;28;86893;-85
2020/12/04 05:52:50;;;;;;;23.92;13.20;;;3.20;99.90;;;;;;4989674;28;87129;-84
2020/12/04 05:55:16;;;;;;;26.95;14.63;;;3.20;99.90;;;;;;4989830;28;87784;-85
2020/12/04 05:57:43;;;;;;;27.10;15.88;;;3.10;99.90;;;;;;4988292;28;87180;-85
2020/12/04 06:00:10;;;;;;;23.85;13.38;;;3.00;99.90;;;;;;4990906;28;86129;-85
2020/12/04 06:02:38;;;;;;;25.50;13.32;;;3.00;99.90;;;;;;4971541;28;87022;-85
2020/12/04 06:05:04;;;;;;;24.05;13.43;;;3.00;99.90;;;;;;4989834;28;88546;-84
2020/12/04 06:07:30;;;;;;;24.48;14.02;;;2.60;99.90;;;;;;4989547;28;86934;-84
2020/12/04 06:09:58;;;;;;;26.33;14.93;;;2.80;99.90;;;;;;4990384;28;86339;-85
2020/12/04 06:12:24;;;;;;;28.17;16.35;;;2.70;99.90;;;;;;4989543;28;86081;-85
2020/12/04 06:14:51;;;;;;;22.33;14.15;;;2.70;99.90;;;;;;4990215;28;86950;-85
2020/12/04 06:17:16;;;;;;;24.02;13.90;;;2.70;99.90;;;;;;4988724;28;86995;-85
2020/12/04 06:19:44;;;;;;;26.45;13.68;;;2.70;99.90;;;;;;4989867;28;87778;-85
2020/12/04 06:22:13;;;;;;;29.23;15.82;;;2.70;99.90;;;;;;4968046;28;86708;-85
2020/12/04 06:24:54;;;;;;;26.88;15.98;;;2.60;99.90;;;;;;4980536;28;86915;-85
2020/12/04 06:27:41;;;;;;;28.42;14.45;;;2.70;99.90;;;;;;4977792;28;87687;-86
2020/12/04 06:30:08;;;;;;;33.65;16.60;;;2.80;99.90;;;;;;4972353;28;86658;-85
2020/12/04 06:32:44;;;;;;;27.60;15.77;;;2.80;99.90;;;;;;4983550;28;88724;-85
2020/12/04 06:35:10;;;;;;;28.25;17.70;;;2.90;99.90;;;;;;4994182;28;87215;-84
2020/12/04 06:37:41;;;;;;;88.50;39.83;;;3.30;99.90;;;;;;4992816;28;86179;-84
2020/12/04 06:40:26;;;;;;;74.80;37.58;;;2.90;99.90;;;;;;4994891;28;86997;-85
2020/12/04 06:42:54;;;;;;;64.28;35.60;;;3.00;99.90;;;;;;4990304;28;87070;-86
2020/12/04 06:45:19;;;;;;;49.85;26.50;;;3.00;99.90;;;;;;4973477;28;88128;-84
2020/12/04 06:48:11;;;;;;;29.65;16.48;;;3.00;99.90;;;;;;4989501;28;88247;-86
2020/12/04 06:50:50;;;;;;;35.42;21.77;;;3.00;99.90;;;;;;4978965;28;87081;-86
2020/12/04 06:53:16;;;;;;;28.92;14.95;;;3.00;99.90;;;;;;4988788;28;86989;-85
2020/12/04 06:55:44;;;;;;;37.10;20.75;;;3.20;99.90;;;;;;4998804;28;87581;-86
2020/12/04 06:58:10;;;;;;;30.60;18.92;;;3.00;99.90;;;;;;4970944;28;89500;-86
2020/12/04 07:00:36;;;;;;;29.30;16.77;;;3.20;99.90;;;;;;4991620;28;86713;-85
2020/12/04 07:03:03;;;;;;;31.98;17.83;;;3.10;99.90;;;;;;4989250;28;86164;-84
2020/12/04 07:05:32;;;;;;;27.70;15.63;;;3.00;99.90;;;;;;4985937;28;87135;-84
2020/12/04 07:08:05;;;;;;;29.48;16.70;;;3.10;99.90;;;;;;4977527;28;87823;-83
2020/12/04 07:10:32;;;;;;;27.77;16.48;;;3.20;99.90;;;;;;4987354;28;87797;-83
2020/12/04 07:13:02;;;;;;;29.00;15.93;;;3.10;99.90;;;;;;4970868;28;86803;-82
2020/12/04 07:15:29;;;;;;;30.55;16.92;;;3.00;99.90;;;;;;4988164;28;87768;-84
2020/12/04 07:17:56;;;;;;;26.92;16.42;;;3.00;99.90;;;;;;4989948;28;86739;-84
2020/12/04 07:20:34;;;;;;;23.70;13.35;;;3.10;99.90;;;;;;4988381;28;87043;-85
2020/12/04 07:22:59;;;;;;;27.08;16.13;;;3.10;99.90;;;;;;4983255;28;86834;-82
2020/12/04 07:25:26;;;;;;;25.42;15.35;;;3.10;99.90;;;;;;4973641;28;88439;-84
2020/12/04 07:27:52;;;;;;;28.52;16.80;;;3.10;99.90;;;;;;4981103;28;86442;-81
2020/12/04 07:30:19;;;;;;;26.67;13.40;;;3.00;99.90;;;;;;4984378;28;86933;-80
2020/12/04 07:32:52;;;;;;;29.08;16.65;;;3.00;99.90;;;;;;4981340;28;86948;-82
2020/12/04 07:35:19;;;;;;;25.70;14.90;;;3.00;99.90;;;;;;4983716;28;87953;-81
2020/12/04 07:37:45;;;;;;;28.65;15.07;;;3.10;99.90;;;;;;4978568;28;87125;-81
2020/12/04 07:40:15;;;;;;;28.02;16.60;;;3.20;99.90;;;;;;4985045;28;86550;-82
2020/12/04 07:42:42;;;;;;;27.02;16.23;;;3.30;99.90;;;;;;4987030;28;86865;-81
2020/12/04 07:45:12;;;;;;;27.02;16.67;;;3.40;99.90;;;;;;4985599;28;86820;-81
2020/12/04 07:47:42;;;;;;;30.92;16.98;;;3.20;99.90;;;;;;4967522;28;88028;-81
2020/12/04 07:50:10;;;;;;;27.70;15.75;;;3.30;99.90;;;;;;4986870;28;86613;-82
2020/12/04 07:52:49;;;;;;;29.27;17.40;;;3.30;99.90;;;;;;4987796;28;86223;-82
2020/12/04 07:55:17;;;;;;;31.83;16.77;;;3.30;99.90;;;;;;4985520;28;86853;-81
2020/12/04 07:57:51;;;;;;;35.75;18.38;;;3.40;99.90;;;;;;4987427;28;86862;-81
2020/12/04 08:00:17;;;;;;;34.50;18.67;;;3.40;99.90;;;;;;4986935;28;87616;-81
2020/12/04 08:02:43;;;;;;;31.63;17.27;;;3.40;99.90;;;;;;4987896;28;86819;-81
2020/12/04 08:05:08;;;;;;;28.58;16.25;;;3.50;99.90;;;;;;4988556;28;86867;-82
2020/12/04 08:07:34;;;;;;;31.85;17.95;;;3.40;99.90;;;;;;4987803;28;87310;-81
2020/12/04 08:10:00;;;;;;;35.58;19.40;;;3.40;99.90;;;;;;4988292;28;86920;-81
2020/12/04 08:12:32;;;;;;;29.83;18.33;;;3.70;99.90;;;;;;4986892;28;87024;-83
2020/12/04 08:15:03;;;;;;;29.00;17.70;;;3.90;99.90;;;;;;4984487;28;88184;-81
2020/12/04 08:17:30;;;;;;;;;;;3.90;99.90;;;;;;4984594;28;86463;-82
2020/12/04 08:19:57;;;;;;;36.00;17.80;;;3.80;99.90;;;;;;4984092;28;86203;-82
2020/12/04 08:22:31;;;;;;;55.35;29.48;;;3.80;99.90;;;;;;4978684;28;86762;-83
2020/12/04 08:25:08;;;;;;;67.55;33.58;;;3.90;99.90;;;;;;4978851;28;88242;-82
2020/12/04 08:27:40;;;;;;;54.22;29.85;;;3.90;99.90;;;;;;4980701;28;89183;-82
2020/12/04 08:30:22;;;;;;;46.78;23.48;;;3.90;99.90;;;;;;4978981;28;86873;-83
2020/12/04 08:32:54;;;;;;;39.53;22.95;;;3.90;99.90;;;;;;4980533;28;86391;-83
2020/12/04 08:35:31;;;;;;;34.88;17.33;;;3.90;99.90;;;;;;4980190;28;87433;-82
2020/12/04 08:38:10;;;;;;;28.73;17.45;;;4.00;99.90;;;;;;4982175;28;87002;-83
2020/12/04 08:40:39;;;;;;;29.23;16.33;;;4.00;99.90;;;;;;4978421;28;86924;-82
2020/12/04 08:43:13;;;;;;;32.72;19.02;;;4.10;99.90;;;;;;4985106;28;86505;-82
2020/12/04 08:45:44;;;;;;;34.25;17.45;;;4.10;99.90;;;;;;4978112;28;86821;-82
2020/12/04 08:48:18;;;;;;;27.05;16.73;;;4.00;99.90;;;;;;4978099;28;87211;-83
2020/12/04 08:50:52;;;;;;;27.25;17.05;;;4.00;99.90;;;;;;4961716;28;87882;-84
2020/12/04 08:53:21;;;;;;;33.28;19.13;;;4.10;99.90;;;;;;4972115;28;86893;-82
2020/12/04 08:55:57;;;;;;;37.80;19.75;;;4.30;99.90;;;;;;4977493;28;87229;-82
2020/12/04 08:58:24;;;;;;;36.85;19.92;;;4.00;99.90;;;;;;4983360;28;87032;-82
2020/12/04 09:00:52;;;;;;;31.33;16.98;;;4.00;99.90;;;;;;4979773;28;86902;-81
2020/12/04 09:03:19;;;;;;;29.90;17.15;;;4.10;99.90;;;;;;4988634;28;87028;-81
2020/12/04 09:05:45;;;;;;;66.22;34.42;;;4.10;99.90;;;;;;4994103;28;87730;-83
2020/12/04 09:08:11;;;;;;;42.03;22.65;;;3.80;99.90;;;;;;4982591;28;87331;-83
2020/12/04 09:10:37;;;;;;;27.30;14.98;;;3.90;99.90;;;;;;4993793;28;86722;-80
2020/12/04 09:13:03;;;;;;;26.70;15.00;;;;;;;;;;4987492;28;86153;-81
2020/12/04 09:15:30;;;;;;;25.48;14.35;;;4.00;99.90;;;;;;4991804;28;87833;-82
2020/12/04 09:17:56;;;;;;;21.27;12.85;;;4.40;99.90;;;;;;4983508;28;88026;-81
2020/12/04 09:20:26;;;;;;;18.33;11.57;;;5.00;99.90;;;;;;4981232;28;86613;-82
2020/12/04 09:22:53;;;;;;;18.00;11.50;;;5.50;95.60;;;;;;4975819;28;87182;-82
2020/12/04 09:25:20;;;;;;;15.40;9.90;;;5.70;93.30;;;;;;4980450;28;86505;-83
2020/12/04 09:27:46;;;;;;;16.27;8.57;;;5.60;92.50;;;;;;4960580;28;90259;-82
2020/12/04 09:30:13;;;;;;;10.38;7.32;;;5.50;91.50;;;;;;4976190;28;87075;-83
2020/12/04 09:32:42;;;;;;;11.32;7.72;;;5.40;90.80;;;;;;4977215;28;86195;-83
2020/12/04 09:35:08;;;;;;;10.82;7.30;;;5.40;91.60;;;;;;4973133;28;87664;-83
2020/12/04 09:37:36;;;;;;;7.03;5.32;;;5.40;91.10;;;;;;4982890;28;86992;-83
2020/12/04 09:40:15;;;;;;;7.22;5.95;;;5.40;88.90;;;;;;4982292;28;87883;-83
2020/12/04 09:42:42;;;;;;;7.53;4.97;;;5.40;89.10;;;;;;4982712;28;87148;-82
2020/12/04 09:45:09;;;;;;;9.40;5.80;;;5.50;88.70;;;;;;4971980;28;87470;-82
2020/12/04 09:47:35;;;;;;;7.95;4.95;;;5.50;87.30;;;;;;4975761;28;87426;-82
2020/12/04 09:50:04;;;;;;;5.40;4.38;;;5.60;86.70;;;;;;4959496;28;87089;-81
2020/12/04 09:52:29;;;;;;;5.60;4.22;;;5.80;87.50;;;;;;4959662;28;86867;-81
2020/12/04 09:54:58;;;;;;;7.80;4.88;;;5.80;86.30;;;;;;4968852;28;86788;-81
2020/12/04 09:57:24;;;;;;;8.27;5.97;;;6.00;87.00;;;;;;4969607;28;86330;-81
2020/12/04 09:59:50;;;;;;;12.32;6.22;;;6.20;85.70;;;;;;4968879;28;86975;-81
2020/12/04 10:02:16;;;;;;;10.35;5.93;;;6.40;85.60;;;;;;4968338;28;87806;-80
2020/12/04 10:04:42;;;;;;;8.90;5.97;;;6.50;82.60;;;;;;4957919;28;88126;-82
2020/12/04 10:07:09;;;;;;;7.95;5.32;;;6.80;82.40;;;;;;4951676;28;88190;-79
2020/12/04 10:09:35;;;;;;;7.50;5.30;;;7.10;82.50;;;;;;4966208;28;86786;-81
2020/12/04 10:12:01;;;;;;;8.23;4.35;;;7.40;80.00;;;;;;4941978;28;88415;-79
2020/12/04 10:14:27;;;;;;;8.05;4.28;;;7.60;78.30;;;;;;4959836;28;86649;-78
2020/12/04 10:16:53;;;;;;;6.45;4.43;;;7.80;75.80;;;;;;4960521;28;87172;-79
2020/12/04 10:19:19;;;;;;;7.25;4.60;;;8.00;75.80;;;;;;4967326;28;86850;-80
2020/12/04 10:21:46;;;;;;;5.80;4.28;;;8.30;75.80;;;;;;4969018;28;86929;-80
2020/12/04 10:24:14;;;;;;;7.30;4.32;;;8.50;74.30;;;;;;4968413;28;87327;-80
2020/12/04 10:26:42;;;;;;;7.13;4.30;;;9.00;72.10;;;;;;4968987;28;87365;-81
2020/12/04 10:29:09;;;;;;;5.38;4.25;;;8.90;72.60;;;;;;4963945;28;87925;-80
2020/12/04 10:31:35;;;;;;;6.15;5.07;;;9.20;72.20;;;;;;4968526;28;86788;-80
2020/12/04 10:34:01;;;;;;;5.43;3.08;;;9.30;69.90;;;;;;4962880;28;87572;-80
2020/12/04 10:36:28;;;;;;;7.35;4.32;;;9.50;69.40;;;;;;4960152;28;87082;-80
2020/12/04 10:38:54;;;;;;;5.72;4.75;;;9.60;68.70;;;;;;4961130;28;87192;-80
2020/12/04 10:41:20;;;;;;;10.13;5.70;;;9.50;70.20;;;;;;4954338;28;86951;-80
2020/12/04 10:43:50;;;;;;;5.55;4.38;;;9.40;68.70;;;;;;4965981;28;87563;-80
2020/12/04 10:46:16;;;;;;;5.90;3.50;;;9.60;67.50;;;;;;4968219;28;87264;-80
2020/12/04 10:48:43;;;;;;;3.88;3.50;;;9.60;68.60;;;;;;4980901;28;87180;-79
2020/12/04 10:51:09;;;;;;;3.58;3.28;;;9.70;67.50;;;;;;4988052;28;86862;-81
2020/12/04 10:53:34;;;;;;;5.10;3.05;;;10.00;67.30;;;;;;4987220;28;87871;-80
2020/12/04 10:56:00;;;;;;;3.65;3.17;;;10.30;65.70;;;;;;4969734;28;89360;-81
2020/12/04 10:58:26;;;;;;;3.45;3.15;;;10.40;65.50;;;;;;4978920;28;86598;-80
2020/12/04 11:00:52;;;;;;;4.55;2.85;;;10.50;64.70;;;;;;4987003;28;87023;-80
2020/12/04 11:05:29;;;;;;;5.28;1.80;;;10.50;64.40;;;;;;4985873;28;87004;-81
2020/12/04 11:06:07;;;;;;;4.80;3.50;;;10.50;65.40;;;;;;4975364;28;89678;-81
2020/12/04 11:08:32;;;;;;;7.30;4.47;;;10.40;66.30;;;;;;4979692;28;86943;-81
2020/12/04 11:10:58;;;;;;;5.35;4.35;;;10.40;65.20;;;;;;4982051;28;86394;-80
2020/12/04 11:13:24;;;;;;;4.53;4.10;;;10.40;65.60;;;;;;4980032;28;87655;-81
2020/12/04 11:15:49;;;;;;;9.52;4.10;;;10.50;67.00;;;;;;4986175;28;87001;-81
2020/12/04 11:18:16;;;;;;;8.57;3.63;;;10.50;65.80;;;;;;4977669;28;87866;-81
2020/12/04 11:20:42;;;;;;;4.70;3.05;;;10.50;66.80;;;;;;4987883;28;86983;-82
2020/12/04 11:23:08;;;;;;;4.97;3.00;;;10.40;66.60;;;;;;4985981;28;86956;-82
2020/12/04 11:25:33;;;;;;;3.58;3.10;;;10.60;65.10;;;;;;4986870;28;87146;-85
2020/12/04 11:27:59;;;;;;;7.90;4.13;;;10.60;66.30;;;;;;4981064;28;87201;-84
2020/12/04 11:30:25;;;;;;;4.97;3.67;;;10.50;65.10;;;;;;4988207;28;86646;-83
2020/12/04 11:32:51;;;;;;;5.05;4.25;;;10.60;66.10;;;;;;4988872;28;87070;-85
2020/12/04 11:35:19;;;;;;;4.03;3.38;;;10.60;65.60;;;;;;4989687;28;86309;-82
2020/12/04 11:37:48;;;;;;;4.90;3.55;;;10.70;66.10;;;;;;4985099;28;87076;-84
2020/12/04 11:40:16;;;;;;;4.70;3.40;;;10.70;64.00;;;;;;4986204;28;87225;-83
2020/12/04 11:42:43;;;;;;;3.88;3.28;;;11.00;64.60;;;;;;4986209;28;88258;-82
2020/12/04 11:45:15;;;;;;;3.70;3.25;;;11.30;62.50;;;;;;4988406;28;88353;-83
2020/12/04 11:47:41;;;;;;;5.13;3.42;;;11.60;61.90;;;;;;4957423;28;86678;-82
2020/12/04 11:50:15;;;;;;;4.07;3.58;;;11.80;63.50;;;;;;4970075;28;87080;-81
2020/12/04 11:52:42;;;;;;;3.20;2.90;;;12.10;60.70;;;;;;4971895;28;87021;-84
2020/12/04 11:55:09;;;;;;;6.40;3.78;;;12.50;60.90;;;;;;4950854;28;88416;-83
2020/12/04 11:57:35;;;;;;;11.95;4.07;;;13.00;60.90;;;;;;4967132;28;86878;-83
2020/12/04 12:00:03;;;;;;;6.10;3.83;;;13.80;59.80;;;;;;4968851;28;85508;-84
2020/12/04 12:02:30;;;;;;;8.23;4.05;;;14.90;56.90;;;;;;4964397;28;87047;-82
2020/12/04 12:04:55;;;;;;;2.67;2.30;;;15.60;53.70;;;;;;4963951;28;86271;-81
2020/12/04 12:07:21;;;;;;;2.38;2.28;;;16.70;45.50;;;;;;4966884;28;87953;-81
2020/12/04 12:09:50;;;;;;;3.00;2.55;;;17.60;42.30;;;;;;4970631;28;86648;-82
2020/12/04 12:12:17;;;;;;;1.85;1.75;;;17.90;38.60;;;;;;4970103;28;87077;-82
2020/12/04 12:14:44;;;;;;;2.40;2.20;;;17.40;38.40;;;;;;4964881;28;86913;-83
2020/12/04 12:17:14;;;;;;;3.22;2.40;;;16.30;41.20;;;;;;4969786;28;86529;-82
2020/12/04 12:19:40;;;;;;;2.33;2.13;;;16.30;42.30;;;;;;4961217;28;87123;-82
2020/12/04 12:22:08;;;;;;;2.40;2.22;;;16.40;41.90;;;;;;4967991;28;86730;-81
2020/12/04 12:24:39;;;;;;;2.45;2.25;;;16.60;41.00;;;;;;4970378;28;86168;-82
2020/12/04 12:27:06;;;;;;;2.22;2.13;;;16.60;41.70;;;;;;4968075;28;86634;-82
2020/12/04 12:29:32;;;;;;;1.73;1.70;;;16.90;41.00;;;;;;4970027;28;86792;-83
2020/12/04 12:31:58;;;;;;;2.00;1.90;;;16.60;40.30;;;;;;4968397;28;87695;-82
2020/12/04 12:37:11;;;;;;;2.25;2.10;;;15.90;43.20;;;;;;4966764;28;86966;-82
2020/12/04 12:39:37;;;;;;;1.50;1.48;;;15.90;42.70;;;;;;4968206;28;86791;-82
2020/12/04 12:42:07;;;;;;;2.40;1.73;;;15.80;43.10;;;;;;4961714;28;87283;-82
2020/12/04 12:44:33;;;;;;;4.15;1.80;;;15.60;44.40;;;;;;4967492;28;86787;-82
2020/12/04 12:46:59;;;;;;;1.83;1.73;;;15.70;44.70;;;;;;4965611;28;87206;-81
2020/12/04 12:49:25;;;;;;;2.60;2.00;;;15.70;45.00;;;;;;4966692;28;86280;-83
2020/12/04 12:51:50;;;;;;;1.60;1.50;;;15.10;44.30;;;;;;4967229;28;88174;-83
2020/12/04 12:54:16;;;;;;;2.65;1.92;;;;;;;;;;4971304;28;86928;-83
2020/12/04 12:56:48;;;;;;;1.50;1.50;;;15.30;45.60;;;;;;4976437;28;87241;-82
2020/12/04 12:59:14;;;;;;;3.47;3.15;;;15.90;43.80;;;;;;4981512;28;86423;-83
2020/12/04 13:01:39;;;;;;;12.18;8.02;;;17.00;45.30;;;;;;4979684;28;88165;-82
2020/12/04 13:04:07;;;;;;;11.60;8.75;;;18.20;47.20;;;;;;4958520;28;86919;-84
2020/12/04 13:06:32;;;;;;;15.93;10.73;;;19.30;46.60;;;;;;4968976;28;87515;-83
2020/12/04 13:08:59;;;;;;;15.20;9.93;;;20.20;45.50;;;;;;4973366;28;87089;-84
2020/12/04 13:11:25;;;;;;;13.93;9.88;;;20.90;42.70;;;;;;4972791;28;89250;-84
2020/12/04 13:13:50;;;;;;;13.93;10.15;;;21.30;42.20;;;;;;4971709;28;86202;-84
2020/12/04 13:16:16;;;;;;;10.85;9.15;;;21.70;40.90;;;;;;4968348;28;86941;-85
2020/12/04 13:18:42;;;;;;;12.43;10.15;;;21.90;40.60;;;;;;4969021;28;88000;-84
2020/12/04 13:21:08;;;;;;;14.02;10.32;;;21.90;40.00;;;;;;4972706;28;87941;-84
2020/12/04 13:23:33;;;;;;;14.05;11.10;;;21.70;40.10;;;;;;4969607;28;87041;-84
2020/12/04 13:25:59;;;;;;;14.50;11.00;;;21.50;39.00;;;;;;4962308;28;87233;-88
2020/12/04 13:28:25;;;;;;;12.88;10.90;;;21.30;39.80;;;;;;4943156;28;86963;-86
2020/12/04 13:30:50;;;;;;;14.07;11.48;;;20.60;39.40;;;;;;4949053;28;89384;-87
2020/12/04 13:33:16;;;;;;;12.65;10.20;;;19.30;41.40;;;;;;4968903;28;87422;-87
2020/12/04 13:35:42;;;;;;;14.27;11.18;;;18.70;42.80;;;;;;4969057;28;86856;-88
2020/12/04 13:38:11;;;;;;;15.57;10.88;;;18.00;43.00;;;;;;4962054;28;86340;-86
2020/12/04 13:40:39;;;;;;;14.10;10.85;;;16.90;45.30;;;;;;4969671;28;86813;-88
2020/12/04 13:43:04;;;;;;;14.15;11.00;;;16.50;45.50;;;;;;4965137;28;87522;-89
2020/12/04 13:45:42;;;;;;;14.82;11.00;;;15.90;47.20;;;;;;4967986;28;87645;-90
2020/12/04 13:48:08;;;;;;;15.95;13.00;;;15.50;47.60;;;;;;4984024;28;86478;-90
2020/12/04 13:50:34;;;;;;;18.20;11.27;;;15.20;48.50;;;;;;4987478;28;87648;-88
2020/12/04 13:53:00;;;;;;;16.17;11.68;;;;;;;;;;4988127;28;87634;-90
2020/12/04 13:55:26;;;;;;;15.52;11.88;;;14.50;49.10;;;;;;4970972;28;86485;-89
2020/12/04 13:57:52;;;;;;;15.70;11.85;;;;;;;;;;4969551;28;86835;-90
2020/12/04 14:00:18;;;;;;;16.88;12.75;;;13.40;51.00;;;;;;4969892;28;88024;-90
2020/12/04 14:02:44;;;;;;;14.18;11.60;;;13.10;51.90;;;;;;4964082;28;88880;-88
2020/12/04 14:05:10;;;;;;;16.10;11.73;;;13.10;52.10;;;;;;4971097;28;86814;-89
2020/12/04 14:07:36;;;;;;;14.70;11.27;;;12.90;52.30;;;;;;4960390;28;87066;-90
2020/12/04 14:10:02;;;;;;;15.35;11.18;;;;;;;;;;4969532;28;89982;-90
2020/12/04 14:12:27;;;;;;;23.20;17.88;;;12.30;52.40;;;;;;4960385;28;90013;-91
2020/12/04 14:14:54;;;;;;;17.35;13.93;;;;;;;;;;4970875;28;86405;-86
2020/12/04 14:17:33;;;;;;;18.23;10.98;;;12.20;53.90;;;;;;4981298;28;86520;-87
2020/12/04 14:19:58;;;;;;;25.15;18.42;;;12.10;53.80;;;;;;4986228;28;88169;-86
2020/12/04 14:22:24;;;;;;;19.58;14.95;;;11.90;53.80;;;;;;4988340;28;87387;-86
2020/12/04 14:24:50;;;;;;;20.75;15.98;;;11.30;55.20;;;;;;4989139;28;86806;-87
2020/12/04 14:27:15;;;;;;;19.67;14.85;;;10.90;55.60;;;;;;4988099;28;86195;-86
2020/12/04 14:29:41;;;;;;;38.05;31.88;;;10.70;56.20;;;;;;4990887;28;87218;-86
2020/12/04 14:32:07;;;;;;;22.63;18.60;;;10.50;57.60;;;;;;4989580;28;86959;-87
2020/12/04 14:34:32;;;;;;;18.55;11.93;;;10.30;57.80;;;;;;4987106;28;87576;-85
2020/12/04 14:36:59;;;;;;;15.77;11.55;;;10.10;58.80;;;;;;4990023;28;87089;-85
2020/12/04 14:39:25;;;;;;;18.48;12.45;;;9.90;58.30;;;;;;4988241;28;87506;-86
2020/12/04 14:41:51;;;;;;;21.77;15.68;;;9.50;59.30;;;;;;4990430;28;87445;-86
2020/12/04 14:44:17;;;;;;;26.65;20.90;;;9.10;60.50;;;;;;4976929;28;86970;-85
2020/12/04 14:46:43;;;;;;;19.75;14.27;;;8.80;62.00;;;;;;4987884;28;86781;-85
2020/12/04 14:49:08;;;;;;;19.20;13.18;;;8.40;62.70;;;;;;4991583;28;87826;-87
2020/12/04 14:51:35;;;;;;;21.38;12.48;;;8.30;63.70;;;;;;4987887;28;86590;-87
2020/12/04 14:54:00;;;;;;;19.98;12.20;;;7.90;66.00;;;;;;4987837;28;86793;-88
2020/12/04 14:56:26;;;;;;;19.08;12.05;;;7.70;66.50;;;;;;4969423;28;86819;-90
2020/12/04 14:58:52;;;;;;;18.58;11.98;;;7.60;67.80;;;;;;4971388;28;89424;-89
2020/12/04 15:01:18;;;;;;;19.95;11.00;;;7.30;68.70;;;;;;4987370;28;88415;-87
2020/12/04 15:03:44;;;;;;;19.10;11.60;;;7.20;69.00;;;;;;4981856;28;86778;-89
2020/12/04 15:06:12;;;;;;;18.50;11.90;;;7.10;68.50;;;;;;4981135;28;87183;-89
2020/12/04 15:08:39;;;;;;;19.45;11.50;;;6.90;68.90;;;;;;4963920;28;88198;-90
2020/12/04 15:11:05;;;;;;;18.45;10.80;;;;;;;;;;4969127;28;89464;-90
2020/12/04 15:13:31;;;;;;;19.85;11.88;;;;;;;;;;4988503;28;86960;-89
2020/12/04 15:15:57;;;;;;;22.17;12.32;;;;;;;;;;4988774;28;86451;-90
2020/12/04 15:18:25;;;;;;;28.10;14.93;;;6.50;70.00;;;;;;4971280;28;88906;-90
2020/12/04 15:27:39;;;;;;;19.65;11.82;;;6.30;72.40;;;;;;4989024;28;86429;-90
2020/12/04 15:30:06;;;;;;;20.35;12.88;;;6.20;73.70;;;;;;4983010;28;88354;-88
2020/12/04 15:32:32;;;;;;;27.15;16.75;;;5.90;74.30;;;;;;4984992;28;87153;-89
2020/12/04 15:35:00;;;;;;;26.88;16.73;;;5.90;74.30;;;;;;4970228;28;86940;-89
2020/12/04 15:37:28;;;;;;;21.02;13.38;;;5.80;74.40;;;;;;4985655;28;87076;-88
2020/12/04 15:39:53;;;;;;;21.67;12.90;;;5.70;75.10;;;;;;4969071;28;88546;-86
2020/12/04 15:42:20;;;;;;;23.95;13.52;;;5.60;76.70;;;;;;4961120;28;87326;-86
2020/12/04 15:44:47;;;;;;;29.50;17.42;;;5.40;78.60;;;;;;4971869;28;86815;-86
2020/12/04 15:47:13;;;;;;;43.13;23.10;;;5.30;78.50;;;;;;4983920;28;86977;-89
2020/12/04 15:49:39;;;;;;;30.75;17.20;;;;;;;;;;4964133;28;87845;-87
2020/12/04 15:52:05;;;;;;;26.40;15.65;;;5.10;79.80;;;;;;4950194;28;88640;-88
2020/12/04 15:54:31;;;;;;;28.92;14.90;;;5.00;80.10;;;;;;4964541;28;87037;-88
2020/12/04 15:56:57;;;;;;;24.85;14.60;;;4.90;81.30;;;;;;4951300;28;86930;-87
2020/12/04 15:59:41;;;;;;;23.65;14.20;;;4.70;81.60;;;;;;4949948;28;89123;-89
2020/12/04 16:02:07;;;;;;;28.38;15.50;;;4.80;82.10;;;;;;4965775;28;88681;-90
2020/12/04 16:04:33;;;;;;;35.20;18.25;;;4.70;83.80;;;;;;4950392;28;86892;-91
2020/12/04 16:07:02;;;;;;;54.40;27.15;;;4.60;83.40;;;;;;4967789;28;86512;-90
2020/12/04 16:09:28;;;;;;;40.88;19.20;;;4.60;83.00;;;;;;4933876;28;90167;-89
2020/12/04 16:11:54;;;;;;;37.08;18.73;;;;;;;;;;4966241;28;87590;-89
2020/12/04 16:14:49;;;;;;;33.67;17.98;;;4.60;84.50;;;;;;4949637;28;87670;-88
2020/12/04 16:17:15;;;;;;;29.38;16.42;;;;;;;;;;4969534;28;87016;-90
2020/12/04 16:19:41;;;;;;;37.60;19.30;;;;;;;;;;4986327;28;88731;-90
2020/12/04 16:25:33;;;;;;;25.42;15.82;;;4.50;87.80;;;;;;4987636;28;86752;-90
2020/12/04 16:31:23;;;;;;;28.73;16.60;;;4.30;90.30;;;;;;4984044;28;86367;-89
2020/12/04 16:37:11;;;;;;;28.83;15.07;;;;;;;;;;4984275;28;86899;-90
2020/12/04 17:16:01;;;;;;;37.63;22.13;;;4.20;92.40;;;;;;5458762;22;86701;-91
2020/12/04 17:18:27;;;;;;;36.47;22.10;;;4.20;91.90;;;;;;4930568;28;87739;-89
2020/12/04 17:20:54;;;;;;;39.67;22.00;;;;;;;;;;4929339;28;87954;-89
2020/12/04 17:23:20;;;;;;;34.95;20.88;;;;;;;;;;4929702;28;86970;-90
2020/12/04 17:25:46;;;;;;;38.92;21.55;;;;;;;;;;4931668;28;87691;-88
2020/12/04 17:28:12;;;;;;;35.50;20.33;;;;;;;;;;4946283;28;88760;-89
2020/12/04 17:31:19;;;;;;;52.10;26.83;;;4.20;93.00;;;;;;4931059;28;86508;-89